Terminal Aerodrome Forecast
Issued by NWS

Home | Current Version | Previous Version | Text Only | Print | Product List | Glossary On
Versions: 1 2 3 4 5 6 7 8 9 10 11 12 13 14 15 16
000
FTUS46 KMTR 050500
TAFOAK
TAF
KOAK 050520Z 0506/0612 24010KT P6SM OVC018
     FM052100 28015KT P6SM SCT018
     FM060300 26012KT P6SM OVC015=

USA.gov is the U.S. government's official web portal to all federal, state and local government web resources and services.